This is the latest recevied weather packets stored in our database for station/object KB3KAV. If no packets are shown the sender has not sent any weather packets the latest 1 day(s).
| Time | Temp. | Humidity | Pressure | Rain* | Wind** | Luminosity | Snow |
|---|---|---|---|---|---|---|---|
| 1777995660 | 24.44° C | 43% | 1037.8 hPa | 0 mm | 1.79 m/s, 74° | 647 W/m² | - |
| 1777995060 | 23.89° C | 44% | 1037.7 hPa | 0 mm | 3.13 m/s, 111° | 601 W/m² | - |
| 1777994458 | 23.89° C | 45% | 1037.6 hPa | 0 mm | 1.79 m/s, 274° | 628 W/m² | - |
| 1777993857 | 23.89° C | 45% | 1037.7 hPa | 0 mm | 2.24 m/s, 295° | 623 W/m² | - |
| 1777993255 | 23.33° C | 47% | 1037.8 hPa | 0 mm | 2.68 m/s, 269° | 570 W/m² | - |
| 1777992650 | 23.33° C | 45% | 1037.8 hPa | 0 mm | 4.47 m/s, 339° | 609 W/m² | - |
| 1777992050 | 22.78° C | 46% | 1037.6 hPa | 0 mm | 3.13 m/s, 350° | 588 W/m² | - |
| 1777991451 | 22.78° C | 46% | 1037.8 hPa | 0 mm | 3.13 m/s, 256° | 601 W/m² | - |
| 1777990850 | 23.33° C | 46% | 1037.8 hPa | 0 mm | 2.24 m/s, 306° | 604 W/m² | - |
| 1777990250 | 22.22° C | 49% | 1037.9 hPa | 0 mm | 1.34 m/s, 60° | 557 W/m² | - |
| 1777989650 | 22.22° C | 51% | 1037.9 hPa | 0 mm | 0.89 m/s, 156° | 553 W/m² | - |
| 1777989048 | 21.11° C | 51% | 1038.1 hPa | 0 mm | 1.79 m/s, 272° | 498 W/m² | - |
| 1777988448 | 21.67° C | 51% | 1038.5 hPa | 0 mm | 0 m/s | 449 W/m² | - |
| 1777987846 | 21.11° C | 52% | 1038.4 hPa | 0 mm | 2.24 m/s, 343° | 429 W/m² | - |
| 1777987246 | 20.56° C | 55% | 1038.6 hPa | 0 mm | 1.79 m/s, 351° | 401 W/m² | - |
| 1777986641 | 20° C | 57% | 1038.6 hPa | 0 mm | 2.24 m/s, 0° | 344 W/m² | - |
| 1777986037 | 18.89° C | 65% | 1038.9 hPa | 0 mm | 0 m/s | 315 W/m² | - |
| 1777985436 | 17.78° C | 73% | 1038.7 hPa | 0 mm | 0.45 m/s, 110° | 299 W/m² | - |
| 1777984834 | 16.67° C | 74% | 1038.7 hPa | 0 mm | 0 m/s | 271 W/m² | - |
| 1777984232 | 15° C | 77% | 1038.9 hPa | 0 mm | 0.45 m/s, 103° | 249 W/m² | - |
| 1777983632 | 14.44° C | 81% | 1038.7 hPa | 0 mm | 0 m/s | 202 W/m² | - |
| 1777983031 | 13.33° C | 83% | 1039 hPa | 0 mm | 0 m/s | 90 W/m² | - |
| 1777982429 | 13.33° C | 81% | 1039 hPa | 0 mm | 0.45 m/s, 102° | 123 W/m² | - |
| 1777981828 | 12.22° C | 86% | 1038.8 hPa | 0 mm | 0 m/s | 87 W/m² | - |
| 1777981227 | 12.22° C | 85% | 1039 hPa | 0 mm | 0.45 m/s, 101° | 61 W/m² | - |
* Rain latest hour (hover to see other rain measurements)
** Current wind speed in m/s (hover to see current wind gust speed)